Latest Weather Observations for Swan Hill

IDN60801

Issued at 6:34 pm EDT Tuesday 27 January 2015 (issued every 30 minutes, with the page automatically refreshed every 10 minutes)

About weather observations | Map of weather stations | Latest weather observations for NSW | Other Formats
Station Details ID: 077094 Name: SWAN HILL AERODROME Lat: -35.38 Lon: 143.54 Height: 71.0 m
Data from the previous 72 hours. | See also: Recent months at Swan Hill
Date/Time
EDT
Temp
°C
App
Temp
°C
Dew
Point
Rel
Hum
%
Delta-T
°C
Wind Press
QNH
hPa
Press
MSL
hPa
Rain
since 9 am
mm
Dir
 
Spd
km/h
Gust
km/h
Spd
kts
Gust
kts
27/06:30pm 27.9 21.3 4.2 22 12.1 S 28 41 15 22 1009.7 - 0.0
27/06:00pm 28.5 23.0 4.1 21 12.4 S 22 35 12 19 1009.6 1009.3 0.0
27/05:30pm 28.7 23.1 3.5 20 12.7 S 22 35 12 19 1009.6 - 0.0
27/05:00pm 27.5 21.1 3.2 21 12.1 S 26 44 14 24 1009.8 - 0.0
27/04:30pm 28.5 23.4 4.1 21 12.4 S 20 39 11 21 1010.2 - 0.0
27/04:00pm 27.6 21.6 3.3 21 12.1 S 24 39 13 21 1010.4 - 0.0
27/03:30pm 28.0 22.6 4.3 22 12.1 S 22 39 12 21 1010.8 - 0.0
27/03:00pm 26.4 20.2 4.2 24 11.2 S 26 39 14 21 1011.2 1010.8 0.0
27/02:30pm 26.9 22.0 5.2 25 11.2 S 20 37 11 20 1011.5 - 0.0
27/02:00pm 25.4 20.1 5.1 27 10.3 SSE 22 43 12 23 1011.9 - 0.0
27/01:30pm 25.5 20.8 6.2 29 10.0 SSE 20 37 11 20 1012.3 - 0.0
27/01:00pm 24.5 19.4 5.8 30 9.6 SSE 22 39 12 21 1012.8 - 0.0
27/12:30pm 24.0 19.0 6.3 32 9.1 S 22 33 12 18 1013.0 - 0.0
27/12:00pm 23.4 18.3 6.2 33 8.8 S 22 50 12 27 1013.5 1013.2 0.0
27/11:30am 21.3 16.6 6.0 37 7.7 S 20 33 11 18 1013.9 - 0.0
27/11:00am 21.2 16.7 6.3 38 7.5 SSE 19 32 10 17 1014.0 - 0.0
27/10:30am 19.6 14.9 6.0 41 6.8 SSE 20 32 11 17 1014.3 - 0.0
27/10:00am 18.1 13.5 6.3 46 5.8 SSE 20 33 11 18 1014.3 - 0.0
27/09:30am 17.3 12.3 6.5 49 5.3 S 22 33 12 18 1014.6 - 0.0
27/09:00am 16.2 10.7 6.1 51 4.9 SSE 24 39 13 21 1014.7 1014.5 0.0
27/08:30am 14.8 10.4 6.4 57 4.1 S 19 28 10 15 1014.7 - 0.0
27/08:00am 13.5 9.4 6.4 62 3.4 S 17 24 9 13 1014.4 - 0.0
27/07:30am 12.1 8.4 6.2 67 2.8 SSW 15 20 8 11 1014.3 - 0.0
27/07:00am 10.9 7.4 5.4 69 2.5 SSW 13 19 7 10 1014.1 - 0.0
27/06:30am 10.8 7.2 5.1 68 2.6 SSW 13 19 7 10 1013.9 - 0.0
27/06:00am 10.6 7.3 4.5 66 2.7 SSW 11 15 6 8 1013.8 1013.5 0.0
27/05:30am 11.1 8.2 4.6 64 2.9 S 9 13 5 7 1013.8 - 0.0
27/05:00am 11.1 8.1 4.3 63 3.1 S 9 13 5 7 1013.8 - 0.0
27/04:30am 11.3 8.0 4.3 62 3.2 S 11 13 6 7 1013.9 - 0.0
27/04:00am 12.2 9.3 4.4 59 3.5 S 9 13 5 7 1014.1 - 0.0
27/03:30am 12.8 9.5 4.5 57 3.8 SSE 11 15 6 8 1014.3 - 0.0
27/03:00am 13.2 9.4 4.1 54 4.1 S 13 17 7 9 1014.3 1014.0 0.0
27/02:30am 13.7 9.5 4.0 52 4.4 S 15 22 8 12 1014.4 - 0.0
27/02:00am 14.4 9.8 3.8 49 4.8 SSE 17 22 9 12 1014.5 - 0.0
27/01:30am 14.8 10.7 4.2 49 4.9 SSE 15 20 8 11 1014.7 - 0.0
27/01:00am 15.9 10.8 4.3 46 5.4 SSE 20 30 11 16 1014.8 - 0.0
27/12:30am 16.3 11.4 4.0 44 5.7 SSE 19 30 10 16 1014.7 - 0.0
27/12:00am 16.9 12.7 3.6 41 6.2 SSE 15 30 8 16 1014.6 1014.5 0.0
 
Date/Time
EDT
Temp
°C
App
Temp
°C
Dew
Point
Rel
Hum
%
Delta-T
°C
Wind Press
QNH
hPa
Press
MSL
hPa
Rain
since 9 am
mm
Dir
 
Spd
km/h
Gust
km/h
Spd
kts
Gust
kts
26/11:30pm 17.8 12.6 3.3 38 6.7 SE 20 32 11 17 1014.6 - 0.0
26/11:00pm 18.6 13.4 3.3 36 7.2 SE 20 32 11 17 1014.2 - 0.0
26/10:30pm 19.3 14.2 3.1 34 7.6 SE 19 32 10 17 1014.0 - 0.0
26/10:00pm 20.2 15.2 3.4 33 8.0 SE 19 30 10 16 1013.5 - 0.0
26/09:30pm 20.1 16.2 1.0 28 8.6 S 11 22 6 12 1013.2 - 0.0
26/09:00pm 21.1 17.4 -0.2 24 9.5 S 9 17 5 9 1012.9 1012.6 0.0
26/08:30pm 22.7 18.1 -0.7 21 10.5 S 13 17 7 9 1012.6 - 0.0
26/08:00pm 23.7 18.4 -0.6 20 11.0 S 17 24 9 13 1012.4 - 0.0
26/07:30pm 24.3 19.8 -0.1 20 11.2 S 13 19 7 10 1012.3 - 0.0
26/07:00pm 24.2 19.2 -0.9 19 11.3 S 15 24 8 13 1012.0 - 0.0
26/06:30pm 24.2 18.5 -0.9 19 11.3 S 19 37 10 20 1012.0 - 0.0
26/06:00pm 24.4 17.8 -0.7 19 11.4 S 24 32 13 17 1011.9 1011.6 0.0
26/05:30pm 24.9 19.5 -1.0 18 11.7 S 17 30 9 16 1012.3 - 0.0
26/05:00pm 24.4 18.5 -0.7 19 11.4 SSE 20 28 11 15 1012.5 - 0.0
26/04:30pm 23.7 18.5 0.1 21 10.8 S 17 32 9 17 1012.7 - 0.0
26/04:00pm 23.5 17.8 0.6 22 10.6 SW 20 32 11 17 1013.0 - 0.0
26/03:30pm 23.6 18.2 1.3 23 10.4 S 19 35 10 19 1013.4 - 0.0
26/03:00pm 23.5 19.1 0.6 22 10.6 SSE 13 32 7 17 1013.6 1013.3 0.0
26/02:30pm 22.4 16.8 1.4 25 9.8 S 20 33 11 18 1014.0 - 0.0
26/02:00pm 21.9 16.9 1.5 26 9.5 SW 17 28 9 15 1014.4 - 0.0
26/01:30pm 21.7 15.8 1.9 27 9.2 S 22 33 12 18 1014.8 - 0.0
26/01:00pm 21.0 16.1 2.3 29 8.7 SSE 17 32 9 17 1015.2 - 0.0
26/12:30pm 20.5 15.8 3.3 32 8.2 S 17 35 9 19 1015.6 - 0.0
26/12:00pm 19.9 16.3 2.7 32 8.0 SSW 11 24 6 13 1015.9 1015.5 0.0
26/11:30am 19.2 14.4 2.6 33 7.7 SSE 17 28 9 15 1015.9 - 0.0
26/11:00am 18.8 14.6 3.8 37 7.1 SSE 15 24 8 13 1016.2 - 0.0
26/10:30am 17.7 12.6 3.2 38 6.7 SSE 19 30 10 16 1016.6 - 0.0
26/10:00am 16.8 11.9 4.2 43 5.9 SSE 19 26 10 14 1016.7 - 0.0
26/09:30am 16.2 11.6 5.5 49 5.1 S 19 32 10 17 1016.5 - 0.0
26/09:00am 15.7 11.0 5.3 50 5.0 S 19 32 10 17 1016.6 1016.3 0.0
26/08:30am 14.9 10.6 5.4 53 4.5 S 17 24 9 13 1016.6 - 0.0
26/08:00am 13.5 9.9 5.2 57 3.9 S 13 20 7 11 1016.3 - 0.0
26/07:30am 11.4 8.5 4.4 62 3.2 S 9 15 5 8 1015.9 - 0.0
26/07:00am 9.1 6.5 3.3 67 2.5 S 6 7 3 4 1015.7 - 0.0
26/06:30am 8.8 7.3 3.2 68 2.4 CALM 0 0 0 0 1015.2 - 0.0
26/06:00am 9.7 7.0 2.8 62 3.0 S 6 9 3 5 1014.8 1014.7 0.0
26/05:30am 9.8 7.2 3.3 64 2.8 S 6 7 3 4 1014.3 - 0.0
26/05:00am 10.6 7.9 3.6 62 3.1 S 7 7 4 4 1014.0 - 0.0
26/04:30am 11.0 7.8 3.3 59 3.4 S 9 11 5 6 1013.8 - 0.0
26/04:00am 11.4 8.2 3.2 57 3.6 S 9 13 5 7 1013.7 - 0.0
26/03:30am 12.3 9.2 3.5 55 3.9 S 9 13 5 7 1013.7 - 0.0
26/03:00am 12.6 9.4 3.3 53 4.1 S 9 13 5 7 1013.5 1013.2 0.0
26/02:30am 13.4 10.2 3.2 50 4.6 S 9 13 5 7 1013.5 - 0.0
26/02:00am 14.3 10.4 3.5 48 4.9 S 13 17 7 9 1013.3 - 0.0
26/01:30am 15.1 10.9 3.9 47 5.2 S 15 19 8 10 1013.2 - 0.0
26/01:00am 15.6 10.9 3.4 44 5.6 SSW 17 24 9 13 1013.2 - 0.0
26/12:30am 16.2 11.1 3.3 42 5.9 SSW 19 26 10 14 1012.9 - 0.0
26/12:00am 16.3 11.4 2.3 39 6.3 SW 17 20 9 11 1012.9 1012.6 0.0
 
Date/Time
EDT
Temp
°C
App
Temp
°C
Dew
Point
Rel
Hum
%
Delta-T
°C
Wind Press
QNH
hPa
Press
MSL
hPa
Rain
since 9 am
mm
Dir
 
Spd
km/h
Gust
km/h
Spd
kts
Gust
kts
25/11:30pm 17.2 12.7 2.4 37 6.7 SSW 15 20 8 11 1012.6 - 0.0
25/11:00pm 17.8 12.9 2.2 35 7.1 SSW 17 24 9 13 1012.4 - 0.0
25/10:30pm 18.2 13.8 2.5 35 7.2 SSW 15 24 8 13 1012.3 - 0.0
25/10:00pm 18.9 14.0 2.3 33 7.6 SSW 17 24 9 13 1012.1 - 0.0
25/09:30pm 19.7 15.3 2.6 32 8.0 SSW 15 20 8 11 1011.7 - 0.0
25/09:00pm 20.6 14.9 2.9 31 8.4 SSW 22 35 12 19 1011.2 1010.9 0.0
25/08:30pm 21.8 15.3 2.5 28 9.1 SW 26 35 14 19 1010.9 - 0.0
25/08:00pm 22.5 16.6 1.5 25 9.8 SSW 22 37 12 20 1010.4 - 0.0
25/07:30pm 23.1 16.7 0.9 23 10.3 SW 24 33 13 18 1010.0 - 0.0
25/07:00pm 24.3 16.3 0.6 21 11.0 SW 32 46 17 25 1009.7 - 0.0
25/06:30pm 24.7 17.3 1.6 22 11.0 SW 30 41 16 22 1009.6 - 0.0
25/06:00pm 24.6 16.6 1.5 22 10.9 SW 33 54 18 29 1009.2 1008.9 0.0
25/05:31pm 25.5 17.0 0.9 20 11.6 WSW 35 54 19 29 1009.0 - 0.0
25/05:30pm 25.6 17.4 0.3 19 11.8 WSW 33 46 18 25 1008.9 - 0.0
25/05:02pm 25.3 18.1 0.7 20 11.5 SW 28 46 15 25 1009.1 - 0.0
25/05:00pm 24.5 16.6 0.8 21 11.1 SW 32 46 17 25 1009.2 - 0.0
25/04:30pm 24.7 16.8 0.9 21 11.1 SW 32 50 17 27 1009.1 - 0.0
25/04:00pm 24.8 16.7 1.0 21 11.2 SW 33 54 18 29 1009.3 - 0.0
25/03:35pm 24.8 17.4 1.7 22 11.0 SW 30 48 16 26 1009.3 - 0.0
25/03:30pm 24.5 17.0 1.4 22 10.9 SW 30 46 16 25 1009.2 - 0.0
25/03:00pm 24.1 17.9 2.3 24 10.4 SW 24 52 13 28 1009.6 1009.2 0.0
25/02:40pm 25.0 17.2 3.0 24 10.7 SW 33 52 18 28 1009.6 - 0.0
25/02:30pm 24.3 16.0 1.9 23 10.7 SW 35 46 19 25 1009.8 - 0.0
25/02:05pm 23.9 16.5 2.1 24 10.4 SW 30 48 16 26 1010.0 - 0.0
25/02:00pm 23.2 15.3 2.1 25 10.0 SW 33 46 18 25 1009.9 - 0.0
25/01:34pm 23.3 16.0 2.7 26 9.9 SW 30 54 16 29 1010.0 - 0.0
25/01:30pm 22.5 15.5 2.1 26 9.6 SW 28 44 15 24 1010.0 - 0.0
25/01:00pm 22.3 14.9 1.9 26 9.6 SW 30 44 16 24 1009.9 - 0.0
25/12:30pm 21.8 15.3 2.5 28 9.1 SW 26 44 14 24 1010.1 - 0.0
25/12:00pm 21.7 14.7 3.9 31 8.6 SW 30 46 16 25 1010.0 1009.8 0.0
25/11:31am 20.4 13.7 3.6 33 8.0 SW 28 46 15 25 1010.1 - 0.0
25/11:30am 20.3 14.1 4.4 35 7.7 SW 26 46 14 25 1010.1 - 0.0
25/11:11am 20.5 14.2 5.7 38 7.4 SW 28 46 15 25 1010.1 - 0.0
25/11:00am 19.0 13.5 5.8 42 6.5 SSW 24 35 13 19 1010.2 - 0.0
25/10:30am 18.2 12.8 6.4 46 5.9 SW 24 37 13 20 1010.0 - 0.0
25/10:00am 17.8 11.4 7.0 49 5.4 SW 30 41 16 22 1010.1 - 0.0
25/09:30am 17.5 11.2 7.5 52 5.1 SW 30 44 16 24 1009.8 - 0.0
25/09:00am 17.5 11.9 8.6 56 4.6 SW 28 41 15 22 1009.6 1009.3 0.0
25/08:30am 16.4 10.9 9.1 62 3.8 SW 28 39 15 21 1009.2 - 0.0
25/08:00am 16.1 11.6 10.0 67 3.2 SW 24 33 13 18 1008.8 - 0.0
25/07:30am 15.6 11.5 11.4 76 2.3 SW 24 32 13 17 1008.4 - 0.0
25/07:00am 15.2 11.1 11.4 78 2.0 WSW 24 32 13 17 1008.0 - 0.0
25/06:30am 15.5 11.3 11.1 75 2.4 WSW 24 32 13 17 1007.4 - 0.0
25/06:00am 16.1 11.8 10.6 70 2.9 WSW 24 30 13 16 1006.8 1006.5 0.0
25/05:30am 16.8 12.7 11.3 70 3.0 WSW 24 33 13 18 1006.3 - 0.0
25/05:00am 17.3 12.7 11.1 67 3.4 WSW 26 35 14 19 1006.0 - 0.0
25/04:30am 17.6 13.3 10.9 65 3.6 WSW 24 32 13 17 1005.9 - 0.0
25/04:00am 17.8 13.7 10.2 61 4.1 WSW 22 30 12 16 1006.0 - 0.0
25/03:30am 17.8 14.0 8.9 56 4.6 W 19 24 10 13 1005.8 - 0.0
25/03:00am 18.5 14.6 8.5 52 5.2 WSW 19 26 10 14 1005.9 1005.6 0.0
25/02:30am 18.9 14.9 8.3 50 5.5 WSW 19 24 10 13 1005.9 - 0.0
25/02:00am 19.2 15.9 7.9 48 5.8 WSW 15 19 8 10 1005.8 - 0.0
25/01:30am 19.8 16.1 7.9 46 6.1 SW 17 24 9 13 1005.9 - 0.0
25/01:00am 20.3 16.2 7.7 44 6.5 SW 19 28 10 15 1005.9 - 0.0
25/12:30am 20.9 16.1 7.2 41 7.0 SW 22 28 12 15 1005.8 - 0.0
25/12:00am 21.4 16.8 6.5 38 7.6 SW 20 28 11 15 1005.7 1005.4 0.0
 
Date/Time
EDT
Temp
°C
App
Temp
°C
Dew
Point
Rel
Hum
%
Delta-T
°C
Wind Press
QNH
hPa
Press
MSL
hPa
Rain
since 9 am
mm
Dir
 
Spd
km/h
Gust
km/h
Spd
kts
Gust
kts
24/11:30pm 22.2 16.8 6.4 36 8.1 SW 24 33 13 18 1005.5 - 0.0
24/11:00pm 23.0 16.9 6.7 35 8.4 SW 28 39 15 21 1005.4 - 0.0
24/10:30pm 23.7 18.0 6.9 34 8.7 SW 26 35 14 19 1005.1 - 0.0
24/10:20pm 23.9 17.5 7.1 34 8.8 SW 30 48 16 26 1005.0 - 0.0
24/10:00pm 24.8 18.1 7.4 33 9.2 SW 32 44 17 24 1004.6 - 0.0
24/09:40pm 25.6 19.7 7.7 32 9.5 SW 28 43 15 23 1003.9 - 0.0
24/09:30pm 25.5 21.5 5.1 27 10.4 WSW 15 19 8 10 1003.7 - 0.0
24/09:00pm 26.8 23.0 4.0 23 11.5 WSW 13 17 7 9 1003.0 1002.9 0.0
24/08:30pm 28.9 23.3 3.7 20 12.8 WSW 22 28 12 15 1002.7 - 0.0
24/08:00pm 30.1 23.6 2.4 17 13.8 W 26 33 14 18 1002.4 - 0.0
24/07:30pm 31.3 24.1 0.6 14 15.0 WSW 28 37 15 20 1002.1 - 0.0
24/07:00pm 31.6 24.1 0.9 14 15.1 W 30 43 16 23 1001.7 - 0.0

Other Formats:

Comma delimited format used in spreadsheet applications
http://www.bom.gov.au/fwo/IDN60801/IDN60801.94843.axf

JavaScript Object Notation format (JSON) in row-major order
http://www.bom.gov.au/fwo/IDN60801/IDN60801.94843.json